الصفحة الرئيسية
METAR-TAF:

METAR-TAF

مطار :

Kenai, ألاسكا, الولايات المتحدة

دائرة عرض: 60-34-23N, خط طول: 151-14-42W, ارتفاع: 30 متر

مراقبة الطقس الحالي

تاريخ ووقت الإصدار 41 دقيقة قبل الساعة 13:53UTC
ريح 5 عقدة من الشمال
درجة الحرارة 2°درجة مئوية
الرطوبة 80%
ضغط 1015 hPa
الرؤية: 16.1 كم
غيوم مفككة على ارتفاع 5500 قدم
ملبد بالغيوم على ارتفاع 7000 قدم

METAR: PAEN 231353Z AUTO 36005KT 10SM BKN055 OVC070 02/M01 A2997 RMK AO2 SLP152 T00221006 TSNO

زمن: 06:34 (14:34 UTC)

توقعات

تاريخ ووقت الإصدار 3ساعات و 14 دقيقة قبل الساعة 11:20UTC
التوقعات صالحة من23 الساعة 12 UTC إلى 24 الساعة 12 UTC
ريح 7 عقدة من الشمال/الشمال الشرقي
الرؤية: 10 كم
غيوم قليلة على ارتفاع 4500 قدم
ملبد بالغيوم على ارتفاع 6000 قدم
من 23 الساعة 2000 UTC
ريح 9 عقدة من الشمال
الرؤية: 10 كم
غيوم متفرقة على ارتفاع 8000 قدم
غيوم مفككة على ارتفاع 12000 قدم
من 24 الساعة 0600 UTC
ريح 4 عقدةمن اتجاهات متغيرة
الرؤية: 10 كم
غيوم مفككة على ارتفاع 6000 قدم

TAF: PAEN 231120Z 2312/2412 03007KT P6SM FEW045 OVC060 FM232000 36009KT P6SM SCT080 BKN120 FM240600 VRB04KT P6SM BKN060

أرصاد الطقس والتوقعات من أكثر من 4000 مطار (تقارير الطقس للمطار METAR والتنبؤ بالطقس بالمطارTAF).

المحطات المتاحة هي النقط الصفراء والحمراء على الخريطة.

حرك المؤشر فوق النقطة لمعرفة اسم المحطة.

ثم انقر لمعرفة أرصاد وتوقعات الطقس.

لتغيير الخارطة: اضغط على الأزرار الخضراء مع رمز الصليب الأسود للتكبير. على الزر الأخضر مع شرطة للتصغير، أو على الأسهم الخضراء للخرائط المجاورة.


METAR-TAF: